sensor_id;sensor_type;location;lat;lon;timestamp;P1;durP1;ratioP1;P2;durP2;ratioP2
71042;SDS011;58696;52.134;5.500;2022-12-20T00:01:46;2.33;;;1.63;;
71042;SDS011;58696;52.134;5.500;2022-12-20T00:04:13;2.73;;;1.53;;
71042;SDS011;58696;52.134;5.500;2022-12-20T00:06:40;5.35;;;1.80;;
71042;SDS011;58696;52.134;5.500;2022-12-20T00:09:10;2.15;;;1.73;;
71042;SDS011;58696;52.134;5.500;2022-12-20T00:11:38;1.10;;;1.05;;
71042;SDS011;58696;52.134;5.500;2022-12-20T00:14:07;4.22;;;2.38;;
71042;SDS011;58696;52.134;5.500;2022-12-20T00:16:36;3.63;;;1.98;;
71042;SDS011;58696;52.134;5.500;2022-12-20T00:19:03;3.90;;;1.95;;
71042;SDS011;58696;52.134;5.500;2022-12-20T00:21:32;6.40;;;2.00;;
71042;SDS011;58696;52.134;5.500;2022-12-20T00:24:01;6.70;;;2.10;;
71042;SDS011;58696;52.134;5.500;2022-12-20T00:26:29;2.40;;;1.73;;
71042;SDS011;58696;52.134;5.500;2022-12-20T00:28:58;2.63;;;1.63;;
71042;SDS011;58696;52.134;5.500;2022-12-20T00:31:27;3.08;;;1.65;;
71042;SDS011;58696;52.134;5.500;2022-12-20T00:33:55;1.58;;;1.48;;
71042;SDS011;58696;52.134;5.500;2022-12-20T00:36:24;3.20;;;1.70;;
71042;SDS011;58696;52.134;5.500;2022-12-20T00:38:52;3.22;;;1.30;;
71042;SDS011;58696;52.134;5.500;2022-12-20T00:41:24;2.75;;;1.50;;
71042;SDS011;58696;52.134;5.500;2022-12-20T00:43:55;2.53;;;1.58;;
71042;SDS011;58696;52.134;5.500;2022-12-20T00:46:22;3.50;;;1.60;;
71042;SDS011;58696;52.134;5.500;2022-12-20T00:48:53;5.00;;;1.90;;
71042;SDS011;58696;52.134;5.500;2022-12-20T00:51:25;2.00;;;1.80;;
71042;SDS011;58696;52.134;5.500;2022-12-20T00:53:53;2.97;;;1.60;;
71042;SDS011;58696;52.134;5.500;2022-12-20T00:56:20;3.08;;;1.65;;
71042;SDS011;58696;52.134;5.500;2022-12-20T00:58:49;2.63;;;1.70;;
71042;SDS011;58696;52.134;5.500;2022-12-20T01:01:18;2.20;;;1.48;;
71042;SDS011;58696;52.134;5.500;2022-12-20T01:03:47;2.15;;;1.80;;
71042;SDS011;58696;52.134;5.500;2022-12-20T01:06:14;1.88;;;1.27;;
71042;SDS011;58696;52.134;5.500;2022-12-20T01:08:42;2.40;;;1.60;;
71042;SDS011;58696;52.134;5.500;2022-12-20T01:11:13;3.55;;;1.70;;
71042;SDS011;58696;52.134;5.500;2022-12-20T01:13:43;3.28;;;1.80;;
71042;SDS011;58696;52.134;5.500;2022-12-20T01:16:20;3.10;;;1.70;;
71042;SDS011;58696;52.134;5.500;2022-12-20T01:18:50;10.98;;;1.70;;
71042;SDS011;58696;52.134;5.500;2022-12-20T01:21:19;2.47;;;1.70;;
71042;SDS011;58696;52.134;5.500;2022-12-20T01:23:47;2.58;;;1.70;;
71042;SDS011;58696;52.134;5.500;2022-12-20T01:26:16;2.42;;;1.60;;
71042;SDS011;58696;52.134;5.500;2022-12-20T01:28:45;1.58;;;1.45;;
71042;SDS011;58696;52.134;5.500;2022-12-20T01:31:13;2.38;;;1.60;;
71042;SDS011;58696;52.134;5.500;2022-12-20T01:33:43;2.20;;;1.52;;
71042;SDS011;58696;52.134;5.500;2022-12-20T01:36:11;2.42;;;1.73;;
71042;SDS011;58696;52.134;5.500;2022-12-20T01:38:42;2.97;;;1.80;;
71042;SDS011;58696;52.134;5.500;2022-12-20T01:41:13;7.25;;;1.95;;
71042;SDS011;58696;52.134;5.500;2022-12-20T01:46:12;1.70;;;1.20;;
71042;SDS011;58696;52.134;5.500;2022-12-20T01:48:39;1.83;;;1.48;;
71042;SDS011;58696;52.134;5.500;2022-12-20T01:51:12;2.80;;;1.70;;
71042;SDS011;58696;52.134;5.500;2022-12-20T01:53:42;5.20;;;1.77;;
71042;SDS011;58696;52.134;5.500;2022-12-20T01:56:08;3.30;;;1.80;;
71042;SDS011;58696;52.134;5.500;2022-12-20T01:58:36;4.60;;;2.28;;
71042;SDS011;58696;52.134;5.500;2022-12-20T02:01:05;5.18;;;2.28;;
71042;SDS011;58696;52.134;5.500;2022-12-20T02:03:34;1.80;;;1.70;;
71042;SDS011;58696;52.134;5.500;2022-12-20T02:06:13;5.75;;;1.95;;
71042;SDS011;58696;52.134;5.500;2022-12-20T02:08:44;2.65;;;1.48;;
71042;SDS011;58696;52.134;5.500;2022-12-20T02:11:22;2.45;;;1.88;;
71042;SDS011;58696;52.134;5.500;2022-12-20T02:17:08;2.17;;;1.80;;
71042;SDS011;58696;52.134;5.500;2022-12-20T02:28:58;1.25;;;1.15;;
71042;SDS011;58696;52.134;5.500;2022-12-20T02:31:33;3.03;;;1.63;;
71042;SDS011;58696;52.134;5.500;2022-12-20T02:34:05;5.82;;;2.78;;
71042;SDS011;58696;52.134;5.500;2022-12-20T02:36:36;0.95;;;0.85;;
71042;SDS011;58696;52.134;5.500;2022-12-20T02:39:03;2.08;;;1.88;;
71042;SDS011;58696;52.134;5.500;2022-12-20T02:41:38;2.15;;;1.90;;
71042;SDS011;58696;52.134;5.500;2022-12-20T02:46:56;2.42;;;1.52;;
71042;SDS011;58696;52.134;5.500;2022-12-20T02:49:28;1.75;;;1.42;;
71042;SDS011;58696;52.134;5.500;2022-12-20T02:52:00;4.40;;;1.83;;
71042;SDS011;58696;52.134;5.500;2022-12-20T02:54:31;2.42;;;1.75;;
71042;SDS011;58696;52.134;5.500;2022-12-20T02:57:04;1.70;;;1.00;;
71042;SDS011;58696;52.134;5.500;2022-12-20T02:59:59;3.42;;;2.10;;
71042;SDS011;58696;52.134;5.500;2022-12-20T03:02:32;1.50;;;1.40;;
71042;SDS011;58696;52.134;5.500;2022-12-20T03:05:21;2.35;;;1.50;;
71042;SDS011;58696;52.134;5.500;2022-12-20T03:07:53;2.38;;;1.38;;
71042;SDS011;58696;52.134;5.500;2022-12-20T03:10:22;6.53;;;2.10;;
71042;SDS011;58696;52.134;5.500;2022-12-20T03:12:51;4.95;;;2.15;;
71042;SDS011;58696;52.134;5.500;2022-12-20T03:15:17;3.33;;;2.20;;
71042;SDS011;58696;52.134;5.500;2022-12-20T03:17:45;1.70;;;1.55;;
71042;SDS011;58696;52.134;5.500;2022-12-20T03:20:12;3.47;;;2.10;;
71042;SDS011;58696;52.134;5.500;2022-12-20T03:22:41;4.05;;;1.88;;
71042;SDS011;58696;52.134;5.500;2022-12-20T03:25:09;1.30;;;1.13;;
71042;SDS011;58696;52.134;5.500;2022-12-20T03:27:35;3.22;;;1.77;;
71042;SDS011;58696;52.134;5.500;2022-12-20T03:30:02;2.83;;;1.95;;
71042;SDS011;58696;52.134;5.500;2022-12-20T03:32:30;3.85;;;2.15;;
71042;SDS011;58696;52.134;5.500;2022-12-20T03:34:57;1.45;;;0.95;;
71042;SDS011;58696;52.134;5.500;2022-12-20T03:37:24;5.20;;;1.50;;
71042;SDS011;58696;52.134;5.500;2022-12-20T03:39:51;6.95;;;2.47;;
71042;SDS011;58696;52.134;5.500;2022-12-20T03:42:18;2.42;;;1.90;;
71042;SDS011;58696;52.134;5.500;2022-12-20T03:44:45;2.90;;;1.98;;
71042;SDS011;58696;52.134;5.500;2022-12-20T03:47:12;4.07;;;1.77;;
71042;SDS011;58696;52.134;5.500;2022-12-20T03:49:42;4.18;;;1.85;;
71042;SDS011;58696;52.134;5.500;2022-12-20T03:52:11;1.70;;;1.27;;
71042;SDS011;58696;52.134;5.500;2022-12-20T03:54:40;1.95;;;1.50;;
71042;SDS011;58696;52.134;5.500;2022-12-20T03:57:10;1.58;;;1.40;;
71042;SDS011;58696;52.134;5.500;2022-12-20T03:59:37;0.70;;;0.70;;
71042;SDS011;58696;52.134;5.500;2022-12-20T04:02:04;3.08;;;1.88;;
71042;SDS011;58696;52.134;5.500;2022-12-20T04:04:31;3.40;;;1.58;;
71042;SDS011;58696;52.134;5.500;2022-12-20T04:06:59;2.10;;;1.42;;
71042;SDS011;58696;52.134;5.500;2022-12-20T04:09:26;1.75;;;1.00;;
71042;SDS011;58696;52.134;5.500;2022-12-20T04:11:55;5.95;;;2.00;;
71042;SDS011;58696;52.134;5.500;2022-12-20T04:14:22;2.17;;;1.70;;
71042;SDS011;58696;52.134;5.500;2022-12-20T04:16:49;3.38;;;1.40;;
71042;SDS011;58696;52.134;5.500;2022-12-20T04:19:16;4.38;;;2.10;;
71042;SDS011;58696;52.134;5.500;2022-12-20T04:21:43;1.77;;;1.40;;
71042;SDS011;58696;52.134;5.500;2022-12-20T04:24:11;4.35;;;2.17;;
71042;SDS011;58696;52.134;5.500;2022-12-20T04:26:38;5.43;;;1.58;;
71042;SDS011;58696;52.134;5.500;2022-12-20T04:29:06;2.30;;;1.15;;
71042;SDS011;58696;52.134;5.500;2022-12-20T04:31:34;9.10;;;1.67;;
71042;SDS011;58696;52.134;5.500;2022-12-20T04:34:01;3.17;;;2.13;;
71042;SDS011;58696;52.134;5.500;2022-12-20T04:36:28;2.97;;;1.80;;
71042;SDS011;58696;52.134;5.500;2022-12-20T04:38:55;3.78;;;1.38;;
71042;SDS011;58696;52.134;5.500;2022-12-20T04:41:23;1.67;;;1.57;;
71042;SDS011;58696;52.134;5.500;2022-12-20T04:43:53;3.38;;;1.90;;
71042;SDS011;58696;52.134;5.500;2022-12-20T04:46:25;3.47;;;2.35;;
71042;SDS011;58696;52.134;5.500;2022-12-20T04:48:53;3.17;;;1.77;;
71042;SDS011;58696;52.134;5.500;2022-12-20T04:51:24;7.75;;;1.90;;
71042;SDS011;58696;52.134;5.500;2022-12-20T04:53:54;1.70;;;1.60;;
71042;SDS011;58696;52.134;5.500;2022-12-20T04:56:25;2.22;;;1.52;;
71042;SDS011;58696;52.134;5.500;2022-12-20T04:58:55;5.13;;;1.77;;
71042;SDS011;58696;52.134;5.500;2022-12-20T05:01:22;2.95;;;1.75;;
71042;SDS011;58696;52.134;5.500;2022-12-20T05:03:50;4.93;;;1.88;;
71042;SDS011;58696;52.134;5.500;2022-12-20T05:06:19;9.63;;;1.90;;
71042;SDS011;58696;52.134;5.500;2022-12-20T05:08:48;2.40;;;1.73;;
71042;SDS011;58696;52.134;5.500;2022-12-20T05:11:15;4.65;;;1.85;;
71042;SDS011;58696;52.134;5.500;2022-12-20T05:13:41;2.63;;;1.95;;
71042;SDS011;58696;52.134;5.500;2022-12-20T05:16:08;2.75;;;1.92;;
71042;SDS011;58696;52.134;5.500;2022-12-20T05:18:35;2.00;;;1.85;;
71042;SDS011;58696;52.134;5.500;2022-12-20T05:21:02;2.53;;;1.70;;
71042;SDS011;58696;52.134;5.500;2022-12-20T05:23:47;2.13;;;1.17;;
71042;SDS011;58696;52.134;5.500;2022-12-20T05:26:35;4.40;;;2.15;;
71042;SDS011;58696;52.134;5.500;2022-12-20T05:29:03;2.85;;;1.90;;
71042;SDS011;58696;52.134;5.500;2022-12-20T05:33:59;3.00;;;1.70;;
71042;SDS011;58696;52.134;5.500;2022-12-20T05:36:28;3.13;;;1.60;;
71042;SDS011;58696;52.134;5.500;2022-12-20T05:38:57;1.75;;;1.65;;
71042;SDS011;58696;52.134;5.500;2022-12-20T05:41:29;3.42;;;1.50;;
71042;SDS011;58696;52.134;5.500;2022-12-20T05:43:56;6.20;;;1.95;;
71042;SDS011;58696;52.134;5.500;2022-12-20T05:46:24;2.95;;;1.98;;
71042;SDS011;58696;52.134;5.500;2022-12-20T05:48:53;3.08;;;2.20;;
71042;SDS011;58696;52.134;5.500;2022-12-20T05:51:19;3.45;;;1.73;;
71042;SDS011;58696;52.134;5.500;2022-12-20T05:53:46;3.47;;;1.45;;
71042;SDS011;58696;52.134;5.500;2022-12-20T05:56:13;5.72;;;1.90;;
71042;SDS011;58696;52.134;5.500;2022-12-20T05:58:40;6.22;;;1.98;;
71042;SDS011;58696;52.134;5.500;2022-12-20T06:01:07;5.13;;;2.03;;
71042;SDS011;58696;52.134;5.500;2022-12-20T06:03:36;4.68;;;1.85;;
71042;SDS011;58696;52.134;5.500;2022-12-20T06:06:04;1.85;;;1.42;;
71042;SDS011;58696;52.134;5.500;2022-12-20T06:08:39;3.25;;;2.20;;
71042;SDS011;58696;52.134;5.500;2022-12-20T06:11:08;1.33;;;1.20;;
71042;SDS011;58696;52.134;5.500;2022-12-20T06:13:35;1.45;;;1.35;;
71042;SDS011;58696;52.134;5.500;2022-12-20T06:16:03;0.85;;;0.85;;
71042;SDS011;58696;52.134;5.500;2022-12-20T06:18:30;2.47;;;1.10;;
71042;SDS011;58696;52.134;5.500;2022-12-20T06:20:58;1.38;;;1.15;;
71042;SDS011;58696;52.134;5.500;2022-12-20T06:23:27;2.67;;;1.35;;
71042;SDS011;58696;52.134;5.500;2022-12-20T06:25:54;2.13;;;1.17;;
71042;SDS011;58696;52.134;5.500;2022-12-20T06:28:21;3.10;;;1.30;;
71042;SDS011;58696;52.134;5.500;2022-12-20T06:30:52;1.33;;;1.23;;
71042;SDS011;58696;52.134;5.500;2022-12-20T06:33:19;2.20;;;1.13;;
71042;SDS011;58696;52.134;5.500;2022-12-20T06:35:48;1.20;;;1.08;;
71042;SDS011;58696;52.134;5.500;2022-12-20T06:38:15;1.27;;;1.02;;
71042;SDS011;58696;52.134;5.500;2022-12-20T06:40:45;1.80;;;1.38;;
71042;SDS011;58696;52.134;5.500;2022-12-20T06:43:11;4.25;;;1.25;;
71042;SDS011;58696;52.134;5.500;2022-12-20T06:45:38;3.33;;;1.50;;
71042;SDS011;58696;52.134;5.500;2022-12-20T06:48:08;2.60;;;1.73;;
71042;SDS011;58696;52.134;5.500;2022-12-20T06:50:35;1.67;;;1.43;;
71042;SDS011;58696;52.134;5.500;2022-12-20T06:53:04;2.70;;;1.60;;
71042;SDS011;58696;52.134;5.500;2022-12-20T06:55:32;1.48;;;1.08;;
71042;SDS011;58696;52.134;5.500;2022-12-20T06:57:58;2.22;;;1.67;;
71042;SDS011;58696;52.134;5.500;2022-12-20T07:00:25;2.97;;;1.80;;
71042;SDS011;58696;52.134;5.500;2022-12-20T07:02:52;1.02;;;0.95;;
71042;SDS011;58696;52.134;5.500;2022-12-20T07:05:20;2.40;;;1.58;;
71042;SDS011;58696;52.134;5.500;2022-12-20T07:07:47;3.10;;;1.40;;
71042;SDS011;58696;52.134;5.500;2022-12-20T07:10:17;3.25;;;1.70;;
71042;SDS011;58696;52.134;5.500;2022-12-20T07:12:44;1.95;;;1.23;;
71042;SDS011;58696;52.134;5.500;2022-12-20T07:15:14;1.63;;;1.08;;
71042;SDS011;58696;52.134;5.500;2022-12-20T07:17:41;5.47;;;1.97;;
71042;SDS011;58696;52.134;5.500;2022-12-20T07:20:08;3.67;;;1.50;;
71042;SDS011;58696;52.134;5.500;2022-12-20T07:22:39;7.55;;;1.40;;
71042;SDS011;58696;52.134;5.500;2022-12-20T07:25:06;2.88;;;1.23;;
71042;SDS011;58696;52.134;5.500;2022-12-20T07:27:33;3.28;;;1.73;;
71042;SDS011;58696;52.134;5.500;2022-12-20T07:30:02;1.85;;;1.20;;
71042;SDS011;58696;52.134;5.500;2022-12-20T07:32:30;2.63;;;1.23;;
71042;SDS011;58696;52.134;5.500;2022-12-20T07:34:58;4.07;;;1.43;;
71042;SDS011;58696;52.134;5.500;2022-12-20T07:37:29;2.75;;;1.40;;
71042;SDS011;58696;52.134;5.500;2022-12-20T07:39:56;8.35;;;1.60;;
71042;SDS011;58696;52.134;5.500;2022-12-20T07:42:23;1.10;;;1.00;;
71042;SDS011;58696;52.134;5.500;2022-12-20T07:45:03;2.70;;;1.30;;
71042;SDS011;58696;52.134;5.500;2022-12-20T07:47:31;1.15;;;1.05;;
71042;SDS011;58696;52.134;5.500;2022-12-20T07:49:58;2.08;;;1.48;;
71042;SDS011;58696;52.134;5.500;2022-12-20T07:52:25;1.58;;;1.00;;
71042;SDS011;58696;52.134;5.500;2022-12-20T07:54:55;1.75;;;1.45;;
71042;SDS011;58696;52.134;5.500;2022-12-20T07:57:27;2.28;;;1.48;;
71042;SDS011;58696;52.134;5.500;2022-12-20T07:59:58;1.33;;;1.23;;
71042;SDS011;58696;52.134;5.500;2022-12-20T08:02:30;5.00;;;1.40;;
71042;SDS011;58696;52.134;5.500;2022-12-20T08:05:02;5.45;;;1.35;;
71042;SDS011;58696;52.134;5.500;2022-12-20T08:07:30;0.95;;;0.95;;
71042;SDS011;58696;52.134;5.500;2022-12-20T08:12:26;1.65;;;1.48;;
71042;SDS011;58696;52.134;5.500;2022-12-20T08:14:55;1.75;;;1.65;;
71042;SDS011;58696;52.134;5.500;2022-12-20T08:17:23;1.33;;;0.77;;
71042;SDS011;58696;52.134;5.500;2022-12-20T08:19:50;2.10;;;1.60;;
71042;SDS011;58696;52.134;5.500;2022-12-20T08:22:17;3.50;;;1.45;;
71042;SDS011;58696;52.134;5.500;2022-12-20T08:24:44;1.98;;;1.17;;
71042;SDS011;58696;52.134;5.500;2022-12-20T08:27:12;2.28;;;1.05;;
71042;SDS011;58696;52.134;5.500;2022-12-20T08:29:40;4.43;;;1.15;;
71042;SDS011;58696;52.134;5.500;2022-12-20T08:32:07;3.65;;;1.38;;
71042;SDS011;58696;52.134;5.500;2022-12-20T08:34:34;1.35;;;1.25;;
71042;SDS011;58696;52.134;5.500;2022-12-20T08:37:03;2.58;;;1.30;;
71042;SDS011;58696;52.134;5.500;2022-12-20T08:39:39;1.98;;;1.45;;
71042;SDS011;58696;52.134;5.500;2022-12-20T08:42:07;1.58;;;1.40;;
71042;SDS011;58696;52.134;5.500;2022-12-20T08:44:37;1.77;;;1.08;;
71042;SDS011;58696;52.134;5.500;2022-12-20T08:47:05;2.05;;;1.20;;
71042;SDS011;58696;52.134;5.500;2022-12-20T08:49:32;1.88;;;1.20;;
71042;SDS011;58696;52.134;5.500;2022-12-20T08:51:59;2.13;;;0.95;;
71042;SDS011;58696;52.134;5.500;2022-12-20T08:54:26;1.73;;;1.20;;
71042;SDS011;58696;52.134;5.500;2022-12-20T08:56:53;2.83;;;1.00;;
71042;SDS011;58696;52.134;5.500;2022-12-20T08:59:20;1.50;;;1.40;;
71042;SDS011;58696;52.134;5.500;2022-12-20T09:01:47;1.40;;;1.30;;
71042;SDS011;58696;52.134;5.500;2022-12-20T09:04:14;2.20;;;1.20;;
71042;SDS011;58696;52.134;5.500;2022-12-20T09:06:43;2.65;;;1.95;;
71042;SDS011;58696;52.134;5.500;2022-12-20T09:09:11;1.73;;;1.23;;
71042;SDS011;58696;52.134;5.500;2022-12-20T09:11:38;3.60;;;1.30;;
71042;SDS011;58696;52.134;5.500;2022-12-20T09:16:33;1.30;;;1.20;;
71042;SDS011;58696;52.134;5.500;2022-12-20T09:19:00;2.33;;;1.40;;
71042;SDS011;58696;52.134;5.500;2022-12-20T09:21:32;2.55;;;1.67;;
71042;SDS011;58696;52.134;5.500;2022-12-20T09:23:59;2.50;;;1.50;;
71042;SDS011;58696;52.134;5.500;2022-12-20T09:26:26;2.65;;;1.17;;
71042;SDS011;58696;52.134;5.500;2022-12-20T09:28:53;2.38;;;1.25;;
71042;SDS011;58696;52.134;5.500;2022-12-20T09:31:26;5.47;;;1.65;;
71042;SDS011;58696;52.134;5.500;2022-12-20T09:33:54;3.47;;;1.30;;
71042;SDS011;58696;52.134;5.500;2022-12-20T09:36:24;2.80;;;1.08;;
71042;SDS011;58696;52.134;5.500;2022-12-20T09:38:52;10.13;;;1.65;;
71042;SDS011;58696;52.134;5.500;2022-12-20T09:43:59;1.73;;;1.50;;
71042;SDS011;58696;52.134;5.500;2022-12-20T09:46:30;4.20;;;1.88;;
71042;SDS011;58696;52.134;5.500;2022-12-20T09:48:58;2.33;;;1.52;;
71042;SDS011;58696;52.134;5.500;2022-12-20T09:54:34;2.03;;;1.17;;
71042;SDS011;58696;52.134;5.500;2022-12-20T10:00:17;1.35;;;1.25;;
71042;SDS011;58696;52.134;5.500;2022-12-20T10:02:45;2.50;;;1.65;;
71042;SDS011;58696;52.134;5.500;2022-12-20T10:05:52;2.40;;;1.50;;
71042;SDS011;58696;52.134;5.500;2022-12-20T10:10:53;2.20;;;1.25;;
71042;SDS011;58696;52.134;5.500;2022-12-20T10:16:06;3.22;;;1.45;;
71042;SDS011;58696;52.134;5.500;2022-12-20T10:24:32;1.58;;;1.23;;
71042;SDS011;58696;52.134;5.500;2022-12-20T10:27:09;3.05;;;1.58;;
71042;SDS011;58696;52.134;5.500;2022-12-20T10:29:44;4.70;;;1.58;;
71042;SDS011;58696;52.134;5.500;2022-12-20T10:32:15;1.63;;;1.30;;
71042;SDS011;58696;52.134;5.500;2022-12-20T10:37:57;2.33;;;1.80;;
71042;SDS011;58696;52.134;5.500;2022-12-20T10:40:45;1.75;;;1.17;;
71042;SDS011;58696;52.134;5.500;2022-12-20T10:43:47;9.07;;;1.70;;
71042;SDS011;58696;52.134;5.500;2022-12-20T10:46:19;4.78;;;1.65;;
71042;SDS011;58696;52.134;5.500;2022-12-20T10:51:15;2.58;;;1.60;;
71042;SDS011;58696;52.134;5.500;2022-12-20T10:53:55;3.63;;;1.30;;
71042;SDS011;58696;52.134;5.500;2022-12-20T10:56:28;7.68;;;2.45;;
71042;SDS011;58696;52.134;5.500;2022-12-20T10:58:59;3.75;;;1.52;;
71042;SDS011;58696;52.134;5.500;2022-12-20T11:01:35;1.40;;;1.08;;
71042;SDS011;58696;52.134;5.500;2022-12-20T11:04:06;1.55;;;1.30;;
71042;SDS011;58696;52.134;5.500;2022-12-20T11:06:48;3.55;;;2.13;;
71042;SDS011;58696;52.134;5.500;2022-12-20T11:09:23;5.38;;;1.70;;
71042;SDS011;58696;52.134;5.500;2022-12-20T11:12:14;1.42;;;1.17;;
71042;SDS011;58696;52.134;5.500;2022-12-20T11:14:45;2.22;;;1.50;;
71042;SDS011;58696;52.134;5.500;2022-12-20T11:19:57;2.95;;;2.00;;
71042;SDS011;58696;52.134;5.500;2022-12-20T11:25:38;3.25;;;1.45;;
71042;SDS011;58696;52.134;5.500;2022-12-20T11:28:35;2.08;;;1.63;;
71042;SDS011;58696;52.134;5.500;2022-12-20T11:34:08;1.77;;;1.45;;
71042;SDS011;58696;52.134;5.500;2022-12-20T11:37:03;3.25;;;1.60;;
71042;SDS011;58696;52.134;5.500;2022-12-20T11:39:53;6.38;;;1.65;;
71042;SDS011;58696;52.134;5.500;2022-12-20T11:42:29;2.70;;;1.95;;
71042;SDS011;58696;52.134;5.500;2022-12-20T11:45:30;6.55;;;1.88;;
71042;SDS011;58696;52.134;5.500;2022-12-20T11:48:36;4.20;;;1.88;;
71042;SDS011;58696;52.134;5.500;2022-12-20T11:54:09;1.83;;;1.73;;
71042;SDS011;58696;52.134;5.500;2022-12-20T11:56:44;1.70;;;1.55;;
71042;SDS011;58696;52.134;5.500;2022-12-20T12:01:45;5.13;;;2.25;;
71042;SDS011;58696;52.134;5.500;2022-12-20T12:04:21;2.65;;;1.85;;
71042;SDS011;58696;52.134;5.500;2022-12-20T12:06:58;2.03;;;1.83;;
71042;SDS011;58696;52.134;5.500;2022-12-20T12:09:34;3.30;;;2.05;;
71042;SDS011;58696;52.134;5.500;2022-12-20T12:12:18;7.15;;;2.20;;
71042;SDS011;58696;52.134;5.500;2022-12-20T12:28:56;4.18;;;1.70;;
71042;SDS011;58696;52.134;5.500;2022-12-20T12:32:13;4.00;;;2.00;;
71042;SDS011;58696;52.134;5.500;2022-12-20T12:34:22;2.47;;;1.85;;
71042;SDS011;58696;52.134;5.500;2022-12-20T12:45:40;3.38;;;1.83;;
71042;SDS011;58696;52.134;5.500;2022-12-20T12:48:26;5.10;;;2.38;;
71042;SDS011;58696;52.134;5.500;2022-12-20T12:50:56;4.88;;;2.30;;
71042;SDS011;58696;52.134;5.500;2022-12-20T12:53:34;4.65;;;2.13;;
71042;SDS011;58696;52.134;5.500;2022-12-20T12:59:18;3.35;;;2.22;;
71042;SDS011;58696;52.134;5.500;2022-12-20T13:07:42;3.90;;;2.20;;
71042;SDS011;58696;52.134;5.500;2022-12-20T13:17:51;3.00;;;2.00;;
71042;SDS011;58696;52.134;5.500;2022-12-20T13:25:45;3.58;;;2.40;;
71042;SDS011;58696;52.134;5.500;2022-12-20T13:41:29;3.10;;;2.65;;
71042;SDS011;58696;52.134;5.500;2022-12-20T13:44:17;3.10;;;2.30;;
71042;SDS011;58696;52.134;5.500;2022-12-20T13:49:45;4.63;;;1.75;;
71042;SDS011;58696;52.134;5.500;2022-12-20T13:52:17;3.60;;;2.50;;
71042;SDS011;58696;52.134;5.500;2022-12-20T13:54:47;3.65;;;2.63;;
71042;SDS011;58696;52.134;5.500;2022-12-20T13:57:19;2.22;;;1.77;;
71042;SDS011;58696;52.134;5.500;2022-12-20T13:59:51;2.50;;;2.30;;
71042;SDS011;58696;52.134;5.500;2022-12-20T14:02:35;3.45;;;2.38;;
71042;SDS011;58696;52.134;5.500;2022-12-20T14:05:18;3.08;;;2.30;;
71042;SDS011;58696;52.134;5.500;2022-12-20T14:07:48;2.47;;;2.28;;
71042;SDS011;58696;52.134;5.500;2022-12-20T14:10:23;3.83;;;2.58;;
71042;SDS011;58696;52.134;5.500;2022-12-20T14:12:52;2.40;;;2.20;;
71042;SDS011;58696;52.134;5.500;2022-12-20T14:15:30;3.40;;;2.75;;
71042;SDS011;58696;52.134;5.500;2022-12-20T14:18:18;2.53;;;2.10;;
71042;SDS011;58696;52.134;5.500;2022-12-20T14:20:48;2.80;;;2.10;;
71042;SDS011;58696;52.134;5.500;2022-12-20T14:23:19;2.65;;;2.10;;
71042;SDS011;58696;52.134;5.500;2022-12-20T14:25:53;2.95;;;2.60;;
71042;SDS011;58696;52.134;5.500;2022-12-20T14:28:28;3.67;;;2.40;;
71042;SDS011;58696;52.134;5.500;2022-12-20T14:31:06;2.67;;;2.15;;
71042;SDS011;58696;52.134;5.500;2022-12-20T14:33:47;1.92;;;1.83;;
71042;SDS011;58696;52.134;5.500;2022-12-20T14:38:43;3.22;;;2.55;;
71042;SDS011;58696;52.134;5.500;2022-12-20T14:41:31;4.20;;;2.33;;
71042;SDS011;58696;52.134;5.500;2022-12-20T14:46:34;6.03;;;2.70;;
71042;SDS011;58696;52.134;5.500;2022-12-20T14:52:15;2.40;;;2.20;;
71042;SDS011;58696;52.134;5.500;2022-12-20T15:02:55;2.70;;;2.50;;
71042;SDS011;58696;52.134;5.500;2022-12-20T15:10:46;2.85;;;2.65;;
71042;SDS011;58696;52.134;5.500;2022-12-20T15:13:24;3.13;;;2.80;;
71042;SDS011;58696;52.134;5.500;2022-12-20T15:16:22;4.07;;;2.83;;
71042;SDS011;58696;52.134;5.500;2022-12-20T15:18:59;4.65;;;3.00;;
71042;SDS011;58696;52.134;5.500;2022-12-20T15:21:28;6.85;;;2.83;;
71042;SDS011;58696;52.134;5.500;2022-12-20T15:23:59;6.80;;;3.10;;
71042;SDS011;58696;52.134;5.500;2022-12-20T15:26:27;4.43;;;3.20;;
71042;SDS011;58696;52.134;5.500;2022-12-20T15:28:56;4.88;;;3.40;;
71042;SDS011;58696;52.134;5.500;2022-12-20T15:31:24;5.15;;;3.60;;
71042;SDS011;58696;52.134;5.500;2022-12-20T15:33:59;4.32;;;3.03;;
71042;SDS011;58696;52.134;5.500;2022-12-20T15:36:33;6.28;;;3.10;;
71042;SDS011;58696;52.134;5.500;2022-12-20T15:39:01;3.22;;;3.00;;
71042;SDS011;58696;52.134;5.500;2022-12-20T15:41:39;3.28;;;2.97;;
71042;SDS011;58696;52.134;5.500;2022-12-20T15:44:12;2.90;;;2.58;;
71042;SDS011;58696;52.134;5.500;2022-12-20T15:46:41;3.50;;;3.08;;
71042;SDS011;58696;52.134;5.500;2022-12-20T15:49:17;3.55;;;3.05;;
71042;SDS011;58696;52.134;5.500;2022-12-20T15:51:45;5.15;;;3.35;;
71042;SDS011;58696;52.134;5.500;2022-12-20T15:54:29;4.95;;;3.42;;
71042;SDS011;58696;52.134;5.500;2022-12-20T15:57:00;4.85;;;3.28;;
71042;SDS011;58696;52.134;5.500;2022-12-20T15:59:29;3.45;;;3.15;;
71042;SDS011;58696;52.134;5.500;2022-12-20T16:02:23;3.03;;;2.83;;
71042;SDS011;58696;52.134;5.500;2022-12-20T16:04:52;3.47;;;3.15;;
71042;SDS011;58696;52.134;5.500;2022-12-20T16:09:47;3.85;;;3.30;;
71042;SDS011;58696;52.134;5.500;2022-12-20T16:12:24;3.55;;;3.17;;
71042;SDS011;58696;52.134;5.500;2022-12-20T16:14:54;11.55;;;3.70;;
71042;SDS011;58696;52.134;5.500;2022-12-20T16:17:24;6.10;;;3.70;;
71042;SDS011;58696;52.134;5.500;2022-12-20T16:19:50;4.25;;;3.85;;
71042;SDS011;58696;52.134;5.500;2022-12-20T16:22:19;3.95;;;3.55;;
71042;SDS011;58696;52.134;5.500;2022-12-20T16:24:48;4.50;;;3.95;;
71042;SDS011;58696;52.134;5.500;2022-12-20T16:27:17;10.07;;;3.67;;
71042;SDS011;58696;52.134;5.500;2022-12-20T16:29:44;4.60;;;4.10;;
71042;SDS011;58696;52.134;5.500;2022-12-20T16:32:15;5.18;;;3.58;;
71042;SDS011;58696;52.134;5.500;2022-12-20T16:34:44;5.05;;;4.30;;
71042;SDS011;58696;52.134;5.500;2022-12-20T16:37:13;4.22;;;3.83;;
71042;SDS011;58696;52.134;5.500;2022-12-20T16:39:40;4.70;;;3.95;;
71042;SDS011;58696;52.134;5.500;2022-12-20T16:42:15;3.90;;;3.60;;
71042;SDS011;58696;52.134;5.500;2022-12-20T16:44:43;5.60;;;4.00;;
71042;SDS011;58696;52.134;5.500;2022-12-20T16:47:11;4.32;;;3.92;;
71042;SDS011;58696;52.134;5.500;2022-12-20T16:49:40;3.80;;;3.50;;
71042;SDS011;58696;52.134;5.500;2022-12-20T16:52:17;6.45;;;4.40;;
71042;SDS011;58696;52.134;5.500;2022-12-20T16:54:44;3.90;;;3.60;;
71042;SDS011;58696;52.134;5.500;2022-12-20T16:57:11;4.05;;;3.75;;
71042;SDS011;58696;52.134;5.500;2022-12-20T16:59:38;4.20;;;3.90;;
71042;SDS011;58696;52.134;5.500;2022-12-20T17:02:21;4.80;;;3.83;;
71042;SDS011;58696;52.134;5.500;2022-12-20T17:04:55;4.25;;;3.67;;
71042;SDS011;58696;52.134;5.500;2022-12-20T17:07:23;7.40;;;3.90;;
71042;SDS011;58696;52.134;5.500;2022-12-20T17:09:50;4.60;;;3.75;;
71042;SDS011;58696;52.134;5.500;2022-12-20T17:12:18;3.47;;;3.27;;
71042;SDS011;58696;52.134;5.500;2022-12-20T17:14:47;9.70;;;3.80;;
71042;SDS011;58696;52.134;5.500;2022-12-20T17:17:14;4.80;;;4.25;;
71042;SDS011;58696;52.134;5.500;2022-12-20T17:19:41;3.95;;;3.63;;
71042;SDS011;58696;52.134;5.500;2022-12-20T17:22:09;3.97;;;3.67;;
71042;SDS011;58696;52.134;5.500;2022-12-20T17:24:48;4.30;;;3.35;;
71042;SDS011;58696;52.134;5.500;2022-12-20T17:27:15;4.85;;;4.20;;
71042;SDS011;58696;52.134;5.500;2022-12-20T17:29:43;4.25;;;3.85;;
71042;SDS011;58696;52.134;5.500;2022-12-20T17:32:17;4.40;;;4.00;;
71042;SDS011;58696;52.134;5.500;2022-12-20T17:34:45;4.40;;;3.85;;
71042;SDS011;58696;52.134;5.500;2022-12-20T17:37:14;4.65;;;4.22;;
71042;SDS011;58696;52.134;5.500;2022-12-20T17:39:44;7.88;;;4.55;;
71042;SDS011;58696;52.134;5.500;2022-12-20T17:42:11;4.57;;;4.18;;